Fuji Maru — JD2030 — position and weather

sailwx.info

Track history (hours):
 
Tides and Currents Weather Stations Pressure Air Temp Water Temp Dewpoint Dewpoint Depression Visibility Wind Speed Wind Dir Waves Ship Positions

Fuji Maru

Last reported at 2017-Apr-25 02:30 UTC. Time now 2017-Apr-25 02:39 UTC.
Position N 35°39' E 139°46'.

Length 38 m; draft 4.4 m.

Type: Tug. MMSI: 431001102.

Date/timePositionNaut miles runAvg speedWind from/ knotsBaromVisibWave heightAir tempDewpointWater temp
2017-Apr-25 02:30N 35°39' E 139°46'0 0.0
2017-Apr-25 01:59N 35°39' E 139°46'0 0.0
2017-Apr-25 01:29N 35°39' E 139°46'0 0.0
2017-Apr-25 00:55N 35°39' E 139°46'0 0.0
2017-Apr-25 00:21N 35°39' E 139°46'0 0.0
2017-Apr-24 23:55N 35°39' E 139°46'0 0.0
2017-Apr-24 23:31N 35°39' E 139°46'0 0.0
2017-Apr-24 23:00N 35°39' E 139°46'2 4.1
2017-Apr-24 22:30N 35°37' E 139°46'1 2.2
2017-Apr-24 22:00N 35°36' E 139°47'2 4.6
2017-Apr-24 21:30N 35°34' E 139°49'1 2.1
2017-Apr-24 21:01N 35°35' E 139°48'2 3.5
2017-Apr-24 20:31N 35°37' E 139°47'1 2.2
2017-Apr-24 20:00N 35°35' E 139°47'0 0.9
2017-Apr-24 19:30N 35°36' E 139°46'0 0.7
2017-Apr-24 19:00N 35°36' E 139°46'3 5.5
2017-Apr-24 18:30N 35°39' E 139°46'0 0.0
2017-Apr-24 18:00N 35°39' E 139°46'0 0.0
2017-Apr-24 17:30N 35°39' E 139°46'0 0.0
2017-Apr-24 17:01N 35°39' E 139°46'0 0.1
2017-Apr-24 16:30N 35°39' E 139°46'0 0.1
2017-Apr-24 16:00N 35°39' E 139°46'0 0.0
2017-Apr-24 15:30N 35°39' E 139°46'0 0.0
2017-Apr-24 15:01N 35°39' E 139°46'0 0.1
2017-Apr-24 14:31N 35°39' E 139°46'0 0.0
2017-Apr-24 13:30N 35°39' E 139°46'0 0.1
2017-Apr-24 13:00N 35°39' E 139°46'0 0.0
2017-Apr-24 12:30N 35°39' E 139°46'0 0.0
2017-Apr-24 12:00N 35°39' E 139°46'0 0.0
2017-Apr-24 11:30N 35°39' E 139°46'0 0.0
2017-Apr-24 11:01N 35°39' E 139°46'0 0.0
2017-Apr-24 10:30N 35°39' E 139°46'0 0.0
2017-Apr-24 10:01N 35°39' E 139°46'0 0.0
2017-Apr-24 09:30N 35°39' E 139°46'0 0.0
2017-Apr-24 09:00N 35°39' E 139°46'0 0.0
2017-Apr-24 08:30N 35°39' E 139°46'0 0.0
2017-Apr-24 08:01N 35°39' E 139°46'0 0.0
2017-Apr-24 07:30N 35°39' E 139°46'0 0.1
2017-Apr-24 07:00N 35°39' E 139°46'0 0.1
2017-Apr-24 06:30N 35°39' E 139°46'0 0.0
2017-Apr-24 06:00N 35°39' E 139°46'0 0.0
2017-Apr-24 05:30N 35°39' E 139°46'0 0.0
2017-Apr-24 05:00N 35°39' E 139°46'0 0.0
2017-Apr-24 04:27N 35°39' E 139°46'0 0.0
2017-Apr-24 04:00N 35°39' E 139°46'0 0.0
2017-Apr-24 03:30N 35°39' E 139°46'0 0.0
2017-Apr-24 03:00N 35°39' E 139°46'0 0.0
2017-Apr-24 02:31N 35°39' E 139°46'0 0.0
2017-Apr-24 02:00N 35°39' E 139°46'0 0.0
2017-Apr-24 01:30N 35°39' E 139°46'0 0.0
2017-Apr-24 01:00N 35°39' E 139°46'0 0.0
2017-Apr-24 00:30N 35°39' E 139°46'0 0.0
2017-Apr-24 00:00N 35°39' E 139°46'3 5.1
2017-Apr-23 23:30N 35°36' E 139°46'1 1.6
2017-Apr-23 23:00N 35°36' E 139°47'4 8.0
2017-Apr-23 22:28N 35°33' E 139°51'1 3.2
2017-Apr-23 22:00N 35°34' E 139°50'3 5.7
2017-Apr-23 21:30N 35°36' E 139°47'0 0.0
2017-Apr-23 21:00N 35°36' E 139°47'0 0.8
2017-Apr-23 20:30N 35°36' E 139°47'0 0.4
2017-Apr-23 20:00N 35°36' E 139°46'1 2.4
2017-Apr-23 19:30N 35°37' E 139°46'2 3.5
2017-Apr-23 19:00N 35°39' E 139°46'0 0.0
2017-Apr-23 18:30N 35°39' E 139°46'0 0.0
2017-Apr-23 18:00N 35°39' E 139°46'0 0.0
2017-Apr-23 17:30N 35°39' E 139°46'0 0.0
2017-Apr-23 17:00N 35°39' E 139°46'0 0.0
2017-Apr-23 16:30N 35°39' E 139°46'0 0.0
2017-Apr-23 16:00N 35°39' E 139°46'0 0.0
2017-Apr-23 15:31N 35°39' E 139°46'0 0.0
2017-Apr-23 15:01N 35°39' E 139°46'0 0.0
2017-Apr-23 14:00N 35°39' E 139°46'0 0.0
2017-Apr-23 13:31N 35°39' E 139°46'0 0.0
2017-Apr-23 13:00N 35°39' E 139°46'0 0.0
2017-Apr-23 12:30N 35°39' E 139°46'0 0.0
2017-Apr-23 12:01N 35°39' E 139°46'0 0.0
2017-Apr-23 11:30N 35°39' E 139°46'0 0.0
2017-Apr-23 11:00N 35°39' E 139°46'0 0.0
2017-Apr-23 10:30N 35°39' E 139°46'0 0.0
2017-Apr-23 10:00N 35°39' E 139°46'0 0.0
2017-Apr-23 09:31N 35°39' E 139°46'0 0.0
2017-Apr-23 09:01N 35°39' E 139°46'0 0.0
2017-Apr-23 08:31N 35°39' E 139°46'0 0.0
2017-Apr-23 08:00N 35°39' E 139°46'0 0.0
2017-Apr-23 07:31N 35°39' E 139°46'0 0.0
2017-Apr-23 07:00N 35°39' E 139°46'0 0.0
2017-Apr-23 06:30N 35°39' E 139°46'0 0.0
2017-Apr-23 06:00N 35°39' E 139°46'0 0.0
2017-Apr-23 05:30N 35°39' E 139°46'0 0.0
2017-Apr-23 05:00N 35°39' E 139°46'0 0.0
2017-Apr-23 04:30N 35°39' E 139°46'0 0.0
2017-Apr-23 03:59N 35°39' E 139°46'0 0.0
2017-Apr-23 03:29N 35°39' E 139°46'0 0.0
2017-Apr-23 03:00N 35°39' E 139°46'0 0.0
2017-Apr-23 02:30N 35°39' E 139°46'0 0.0
2017-Apr-23 02:00N 35°39' E 139°46'0 0.0
2017-Apr-23 01:30N 35°39' E 139°46'0 0.0
2017-Apr-23 01:00N 35°39' E 139°46'0 0.0
2017-Apr-23 00:30N 35°39' E 139°46'0 0.0
2017-Apr-23 00:00N 35°39' E 139°46'0 0.0
2017-Apr-22 23:30N 35°39' E 139°46'0 0.0
2017-Apr-22 23:01N 35°39' E 139°46'0 0.0
2017-Apr-22 22:30N 35°39' E 139°46'0 0.0
2017-Apr-22 22:00N 35°39' E 139°46'0 0.0
2017-Apr-22 21:30N 35°39' E 139°46'0 0.0
2017-Apr-22 21:00N 35°39' E 139°46'0 0.0
2017-Apr-22 20:27N 35°39' E 139°46'0 0.0
2017-Apr-22 20:00N 35°39' E 139°46'0 0.0
2017-Apr-22 19:29N 35°39' E 139°46'0 0.0
2017-Apr-22 19:00N 35°39' E 139°46'0 0.0
2017-Apr-22 18:30N 35°39' E 139°46'0 0.0
2017-Apr-22 18:00N 35°39' E 139°46'0 0.0
2017-Apr-22 17:30N 35°39' E 139°46'0 0.0
2017-Apr-22 17:01N 35°39' E 139°46'0 0.0
2017-Apr-22 16:30N 35°39' E 139°46'0 0.0
2017-Apr-22 16:00N 35°39' E 139°46'0 0.0
2017-Apr-22 15:30N 35°39' E 139°46'0 0.0
2017-Apr-22 15:00N 35°39' E 139°46'0 0.0
2017-Apr-22 14:30N 35°39' E 139°46'0 0.0
2017-Apr-22 13:30N 35°39' E 139°46'0 0.0
2017-Apr-22 13:00N 35°39' E 139°46'0 0.0
2017-Apr-22 12:30N 35°39' E 139°46'0 0.0
2017-Apr-22 12:00N 35°39' E 139°46'0 0.0
2017-Apr-22 11:30N 35°39' E 139°46'0 0.0
2017-Apr-22 11:00N 35°39' E 139°46'0 0.0
2017-Apr-22 10:30N 35°39' E 139°46'0 0.0
2017-Apr-22 10:00N 35°39' E 139°46'0 0.0
2017-Apr-22 09:30N 35°39' E 139°46'0 0.0
2017-Apr-22 09:00N 35°39' E 139°46'1 2.4
2017-Apr-22 08:30N 35°38' E 139°46'2 3.7
2017-Apr-22 08:00N 35°36' E 139°47'1 1.8
2017-Apr-22 07:30N 35°37' E 139°46'2 4.3
2017-Apr-22 07:00N 35°39' E 139°46'0 0.2
2017-Apr-22 06:30N 35°39' E 139°46'0 0.0
2017-Apr-22 06:01N 35°39' E 139°46'0 0.0
2017-Apr-22 05:30N 35°39' E 139°46'0 0.0
2017-Apr-22 05:00N 35°39' E 139°46'0 0.0
2017-Apr-22 04:30N 35°39' E 139°46'0 0.0
2017-Apr-22 03:58N 35°39' E 139°46'0 0.0
2017-Apr-22 03:30N 35°39' E 139°46'0 0.0
2017-Apr-22 03:00N 35°39' E 139°46'0 0.0
2017-Apr-22 02:31N 35°39' E 139°46'0 0.0
2017-Apr-22 02:01N 35°39' E 139°46'0 0.0
2017-Apr-22 01:30N 35°39' E 139°46'0 0.0
2017-Apr-22 01:01N 35°39' E 139°46'0 0.0
2017-Apr-22 00:31N 35°39' E 139°46'0 0.0
2017-Apr-22 00:00N 35°39' E 139°46'0 0.0
2017-Apr-21 23:30N 35°39' E 139°46'3 5.0
2017-Apr-21 23:00N 35°36' E 139°46'0 0.2
2017-Apr-21 22:30N 35°36' E 139°46'2 3.1
2017-Apr-21 22:01N 35°35' E 139°47'3 6.4
2017-Apr-21 21:30N 35°33' E 139°51'5 9.5
2017-Apr-21 21:00N 35°36' E 139°46'2 3.5
2017-Apr-21 20:31N 35°38' E 139°45'0 0.3
2017-Apr-21 20:00N 35°38' E 139°46'3 5.4
2017-Apr-21 19:30N 35°36' E 139°47'1 2.4
2017-Apr-21 19:01N 35°37' E 139°46'1 2.5
2017-Apr-21 18:30N 35°38' E 139°46'1 2.0
2017-Apr-21 18:00N 35°39' E 139°46'0 0.0
2017-Apr-21 17:30N 35°39' E 139°46'0 0.0
2017-Apr-21 17:00N 35°39' E 139°46'0 0.0
2017-Apr-21 16:30N 35°39' E 139°46'0 0.0
2017-Apr-21 16:01N 35°39' E 139°46'0 0.0
2017-Apr-21 15:30N 35°39' E 139°46'0 0.0
2017-Apr-21 15:01N 35°39' E 139°46'0 0.0
2017-Apr-21 14:31N 35°39' E 139°46'0 0.0
2017-Apr-21 13:30N 35°39' E 139°46'0 0.0
2017-Apr-21 13:00N 35°39' E 139°46'0 0.0
2017-Apr-21 12:31N 35°39' E 139°46'0 0.0
2017-Apr-21 12:01N 35°39' E 139°46'0 0.1
2017-Apr-21 11:30N 35°39' E 139°46'0 0.1
2017-Apr-21 11:00N 35°39' E 139°46'0 0.0
2017-Apr-21 10:30N 35°39' E 139°46'0 0.0
2017-Apr-21 10:00N 35°39' E 139°46'0 0.0
2017-Apr-21 09:26N 35°39' E 139°46'0 0.0
2017-Apr-21 09:00N 35°39' E 139°46'0 0.0
2017-Apr-21 08:30N 35°39' E 139°46'0 0.0
2017-Apr-21 08:01N 35°39' E 139°46'0 0.0
2017-Apr-21 07:30N 35°39' E 139°46'0 0.0
2017-Apr-21 07:01N 35°39' E 139°46'0 0.0
2017-Apr-21 06:30N 35°39' E 139°46'0 0.0
2017-Apr-21 06:00N 35°39' E 139°46'0 0.0
2017-Apr-21 05:30N 35°39' E 139°46'0 0.0
2017-Apr-21 05:01N 35°39' E 139°46'0 0.0
2017-Apr-21 04:31N 35°39' E 139°46'0 0.0
2017-Apr-21 04:00N 35°39' E 139°46'0 0.0
2017-Apr-21 03:31N 35°39' E 139°46'0 0.0
2017-Apr-21 03:00N 35°39' E 139°46'0 0.0
2017-Apr-21 02:30N 35°39' E 139°46'0 0.0
2017-Apr-21 02:00N 35°39' E 139°46'0 0.0
2017-Apr-21 01:30N 35°39' E 139°46'0 0.0
2017-Apr-21 01:00N 35°39' E 139°46'0 0.0
2017-Apr-21 00:30N 35°39' E 139°46'0 0.0
2017-Apr-21 00:00N 35°39' E 139°46'0 0.0
2017-Apr-20 23:30N 35°39' E 139°46'0 0.0
2017-Apr-20 23:00N 35°39' E 139°46'0 0.0
2017-Apr-20 22:30N 35°39' E 139°46'0 0.0
2017-Apr-20 22:00N 35°39' E 139°46'0 0.0
2017-Apr-20 21:30N 35°39' E 139°46'0 0.0
2017-Apr-20 21:00N 35°39' E 139°46'0 0.0
2017-Apr-20 20:30N 35°39' E 139°46'0 0.0
2017-Apr-20 20:00N 35°39' E 139°46'0 0.0
2017-Apr-20 19:31N 35°39' E 139°46'0 0.0
2017-Apr-20 19:01N 35°39' E 139°46'0 0.0
2017-Apr-20 18:30N 35°39' E 139°46'0 0.0
2017-Apr-20 18:00N 35°39' E 139°46'0 0.0
2017-Apr-20 17:30N 35°39' E 139°46'0 0.0
2017-Apr-20 17:00N 35°39' E 139°46'0 0.0
2017-Apr-20 16:30N 35°39' E 139°46'0 0.0
2017-Apr-20 16:00N 35°39' E 139°46'0 0.0
2017-Apr-20 15:30N 35°39' E 139°46'0 0.2
2017-Apr-20 15:00N 35°39' E 139°46'0 0.2
2017-Apr-20 14:30N 35°39' E 139°46'0 0.0
2017-Apr-20 13:30N 35°39' E 139°46'0 0.0
2017-Apr-20 13:00N 35°39' E 139°46'0 0.0
2017-Apr-20 12:31N 35°39' E 139°46'0 0.0
2017-Apr-20 12:00N 35°39' E 139°46'0 0.0
2017-Apr-20 11:30N 35°39' E 139°46'0 0.0
2017-Apr-20 11:00N 35°39' E 139°46'0 0.2
2017-Apr-20 10:30N 35°39' E 139°46'3 5.7
2017-Apr-20 10:00N 35°36' E 139°47'1 2.1
2017-Apr-20 09:30N 35°35' E 139°48'0 0.8
2017-Apr-20 09:00N 35°35' E 139°48'1 2.1
2017-Apr-20 08:30N 35°35' E 139°47'0 0.0
2017-Apr-20 08:00N 35°35' E 139°47'0 0.0
2017-Apr-20 07:30N 35°35' E 139°47'0 0.0
2017-Apr-20 07:01N 35°35' E 139°47'0 0.0
2017-Apr-20 06:31N 35°35' E 139°47'1 2.0
2017-Apr-20 06:00N 35°36' E 139°47'1 1.2
2017-Apr-20 05:30N 35°37' E 139°46'2 4.0
2017-Apr-20 05:00N 35°39' E 139°46'0 0.0
2017-Apr-20 04:30N 35°39' E 139°46'0 0.0
2017-Apr-20 04:00N 35°39' E 139°46'0 0.0
2017-Apr-20 03:30N 35°39' E 139°46'0 0.0
2017-Apr-20 03:00N 35°39' E 139°46'0 0.0
2017-Apr-20 02:30N 35°39' E 139°46'0 0.0
2017-Apr-20 02:00N 35°39' E 139°46'0 0.0
2017-Apr-20 01:30N 35°39' E 139°46'0 0.0
2017-Apr-20 01:00N 35°39' E 139°46'0 0.0
2017-Apr-20 00:30N 35°39' E 139°46'0 0.0
2017-Apr-20 00:00N 35°39' E 139°46'0 0.0
2017-Apr-19 23:30N 35°39' E 139°46'0 0.0
2017-Apr-19 23:01N 35°39' E 139°46'0 0.0
2017-Apr-19 22:30N 35°39' E 139°46'0 0.0
2017-Apr-19 22:00N 35°39' E 139°46'0 0.0
2017-Apr-19 21:30N 35°39' E 139°46'0 0.0
2017-Apr-19 21:01N 35°39' E 139°46'0 0.1
2017-Apr-19 20:30N 35°39' E 139°46'0 0.1
2017-Apr-19 20:00N 35°39' E 139°46'0 0.0
2017-Apr-19 19:30N 35°39' E 139°46'0 0.0
2017-Apr-19 19:00N 35°39' E 139°46'0 0.0
2017-Apr-19 18:30N 35°39' E 139°46'0 0.0
2017-Apr-19 18:00N 35°39' E 139°46'0 0.0
2017-Apr-19 17:30N 35°39' E 139°46'0 0.0
2017-Apr-19 17:00N 35°39' E 139°46'0 0.1
2017-Apr-19 16:30N 35°39' E 139°46'0 0.1
2017-Apr-19 16:01N 35°39' E 139°46'0 0.0
2017-Apr-19 15:30N 35°39' E 139°46'0 0.2
2017-Apr-19 15:01N 35°39' E 139°46'0 0.2
2017-Apr-19 14:30N 35°39' E 139°46'0 0.0
2017-Apr-19 13:30N 35°39' E 139°46'0 0.0
2017-Apr-19 13:00N 35°39' E 139°46'0 0.0
2017-Apr-19 12:31N 35°39' E 139°46'0 0.0
2017-Apr-19 12:01N 35°39' E 139°46'0 0.0
2017-Apr-19 10:53N 35°39' E 139°46'0 0.0
2017-Apr-19 10:31N 35°39' E 139°46'0 0.0
2017-Apr-19 10:01N 35°39' E 139°46'0 0.0
2017-Apr-19 09:30N 35°39' E 139°46'0 0.0
2017-Apr-19 08:59N 35°39' E 139°46'0 0.0
2017-Apr-19 08:31N 35°39' E 139°46'0 0.0
2017-Apr-19 08:00N 35°39' E 139°46'0 0.0
2017-Apr-19 07:30N 35°39' E 139°46'0 0.0
2017-Apr-19 07:00N 35°39' E 139°46'0 0.0
2017-Apr-19 06:30N 35°39' E 139°46'3 6.7
2017-Apr-19 06:00N 35°37' E 139°49'1 1.8
2017-Apr-19 05:30N 35°38' E 139°50'3 5.8
2017-Apr-19 05:01N 35°37' E 139°46'2 4.6
2017-Apr-19 04:30N 35°39' E 139°46'0 0.0
2017-Apr-19 04:00N 35°39' E 139°46'0 0.0
2017-Apr-19 03:30N 35°39' E 139°46'1 1.4
2017-Apr-19 03:00N 35°38' E 139°46'2 3.0
2017-Apr-19 02:30N 35°37' E 139°46'0 0.4
2017-Apr-19 02:00N 35°37' E 139°46'2 2.6
2017-Apr-19 01:11N 35°39' E 139°46'0 0.0
2017-Apr-19 00:57N 35°39' E 139°46'0 0.0
2017-Apr-19 00:30N 35°39' E 139°46'0 0.0
2017-Apr-19 00:00N 35°39' E 139°46'0 0.0
2017-Apr-18 18:13N 35°39' E 139°46'0 0.0
2017-Apr-18 15:57N 35°39' E 139°46'0 0.0
2017-Apr-18 13:20N 35°39' E 139°46'0 0.0
2017-Apr-18 12:59N 35°39' E 139°46'0 0.0
2017-Apr-18 12:30N 35°39' E 139°46'0 0.0
2017-Apr-18 11:59N 35°39' E 139°46'0 0.0
2017-Apr-18 11:30N 35°39' E 139°46'1 1.3
2017-Apr-18 11:01N 35°38' E 139°45'2 4.1
2017-Apr-18 10:30N 35°36' E 139°47'1 2.0
2017-Apr-18 10:00N 35°35' E 139°47'1 3.0
2017-Apr-18 09:30N 35°34' E 139°48'2 3.6
2017-Apr-18 08:58N 35°36' E 139°47'1 1.6
2017-Apr-18 08:30N 35°36' E 139°47'0 0.3
2017-Apr-18 08:00N 35°36' E 139°47'1 1.6
2017-Apr-18 07:30N 35°36' E 139°47'0 0.0
2017-Apr-18 07:00N 35°36' E 139°47'2 4.8
2017-Apr-18 06:30N 35°38' E 139°46'1 1.8
2017-Apr-18 06:00N 35°39' E 139°46'0 0.0
2017-Apr-18 05:29N 35°39' E 139°46'0 0.0
2017-Apr-18 05:00N 35°39' E 139°46'0 0.0
2017-Apr-18 04:30N 35°39' E 139°46'0 0.0
2017-Apr-18 04:00N 35°39' E 139°46'0 0.0
2017-Apr-18 03:30N 35°39' E 139°46'0 0.0
2017-Apr-18 02:58N 35°39' E 139°46'0 0.0
2017-Apr-18 02:24N 35°39' E 139°46'0 0.0
2017-Apr-18 02:00N 35°39' E 139°46'0 0.0
2017-Apr-18 01:21N 35°39' E 139°46'0 0.0
2017-Apr-18 00:47N 35°39' E 139°46'3 9.5
2017-Apr-18 00:30N 35°36' E 139°47'1 1.1
2017-Apr-18 00:00N 35°36' E 139°47'1 1.8
2017-Apr-17 23:30N 35°35' E 139°48'2 3.8
2017-Apr-17 23:00N 35°36' E 139°46'1 1.5
2017-Apr-17 22:30N 35°36' E 139°47'3 5.6
2017-Apr-17 22:00N 35°34' E 139°49'2 4.8
2017-Apr-17 21:31N 35°35' E 139°47'0 0.4
2017-Apr-17 21:00N 35°35' E 139°47'1 1.2
2017-Apr-17 20:30N 35°36' E 139°46'1 2.1
2017-Apr-17 20:00N 35°37' E 139°46'2 3.9
2017-Apr-17 19:30N 35°39' E 139°46'0 0.0
2017-Apr-17 18:57N 35°39' E 139°46'0 0.0
2017-Apr-17 18:30N 35°39' E 139°46'0 0.0
2017-Apr-17 18:00N 35°39' E 139°46'0 0.0
2017-Apr-17 17:29N 35°39' E 139°46'0 0.0
2017-Apr-17 16:59N 35°39' E 139°46'0 0.0
2017-Apr-17 14:37N 35°39' E 139°46'0 0.0
2017-Apr-17 14:29N 35°39' E 139°46'0 0.0
2017-Apr-17 12:55N 35°39' E 139°46'0 0.0
2017-Apr-17 12:24N 35°39' E 139°46'0 0.0
2017-Apr-17 11:57N 35°39' E 139°46'0 0.0
2017-Apr-17 11:30N 35°39' E 139°46'0 0.0
2017-Apr-17 10:57N 35°39' E 139°46'0 0.0
2017-Apr-17 10:16N 35°39' E 139°46'0 0.0
2017-Apr-17 09:59N 35°39' E 139°46'0 0.0
2017-Apr-17 09:29N 35°39' E 139°46'0 0.0
2017-Apr-17 09:00N 35°39' E 139°46'0 0.0
2017-Apr-17 08:30N 35°39' E 139°46'0 0.0
2017-Apr-17 08:00N 35°39' E 139°46'0 0.0
2017-Apr-17 07:29N 35°39' E 139°46'0 0.0
2017-Apr-17 06:59N 35°39' E 139°46'0 0.0
2017-Apr-17 06:30N 35°39' E 139°46'0 0.0
2017-Apr-17 06:00N 35°39' E 139°46'0 0.0
2017-Apr-17 05:30N 35°39' E 139°46'0 0.0
2017-Apr-17 05:00N 35°39' E 139°46'0 0.0
2017-Apr-17 04:28N 35°39' E 139°46'0 0.0
2017-Apr-17 04:00N 35°39' E 139°46'0 0.0
2017-Apr-17 01:02N 35°39' E 139°46'0 0.0
2017-Apr-17 00:59N 35°39' E 139°46'0 0.0
2017-Apr-17 00:27N 35°39' E 139°46'0 0.0
2017-Apr-16 23:35N 35°39' E 139°46'0 0.1
2017-Apr-16 23:29N 35°39' E 139°46'0 0.0
2017-Apr-16 23:00N 35°39' E 139°46'0 0.0
2017-Apr-16 22:30N 35°39' E 139°46'0 0.0
2017-Apr-16 22:00N 35°39' E 139°46'0 0.0
2017-Apr-16 21:30N 35°39' E 139°46'0 0.0
2017-Apr-16 21:00N 35°39' E 139°46'0 0.0
2017-Apr-16 20:30N 35°39' E 139°46'0 0.0
2017-Apr-16 19:33N 35°39' E 139°46'0 0.0
2017-Apr-16 19:30N 35°39' E 139°46'0 0.0
2017-Apr-16 18:52N 35°39' E 139°46'0 0.0
2017-Apr-16 18:24N 35°39' E 139°46'0 0.0
2017-Apr-16 18:00N 35°39' E 139°46'0 0.0
2017-Apr-16 17:30N 35°39' E 139°46'0 0.0
2017-Apr-16 16:54N 35°39' E 139°46'0 0.0
2017-Apr-16 16:24N 35°39' E 139°46'0 0.0
2017-Apr-16 16:00N 35°39' E 139°46'0 0.0
2017-Apr-16 15:30N 35°39' E 139°46'0 0.0
2017-Apr-16 15:00N 35°39' E 139°46'0 0.0
2017-Apr-16 14:00N 35°39' E 139°46'0 0.0
2017-Apr-16 13:30N 35°39' E 139°46'0 0.0
2017-Apr-16 12:22N 35°39' E 139°46'0 0.0
2017-Apr-16 11:49N 35°39' E 139°46'0 0.0
2017-Apr-16 11:22N 35°39' E 139°46'0 0.0
2017-Apr-16 10:59N 35°39' E 139°46'0 0.0
2017-Apr-16 09:09N 35°39' E 139°46'0 0.0
2017-Apr-16 06:53N 35°39' E 139°46'0 0.0
2017-Apr-16 06:22N 35°39' E 139°46'0 0.0
2017-Apr-16 05:46N 35°39' E 139°46'0 0.0
2017-Apr-16 05:25N 35°39' E 139°46'0 0.0
2017-Apr-16 04:52N 35°39' E 139°46'0 0.0
2017-Apr-16 04:30N 35°39' E 139°46'0 0.0
2017-Apr-16 03:46N 35°39' E 139°46'0 0.0
2017-Apr-16 03:22N 35°39' E 139°46'0 0.0
2017-Apr-16 02:50N 35°39' E 139°46'0 0.0
2017-Apr-16 02:12N 35°39' E 139°46'0 0.0
2017-Apr-16 01:49N 35°39' E 139°46'0 0.0
2017-Apr-16 01:30N 35°39' E 139°46'0 0.0
2017-Apr-16 01:00N 35°39' E 139°46'0 0.0
2017-Apr-16 00:30N 35°39' E 139°46'0 0.0
2017-Apr-16 00:00N 35°39' E 139°46'0 0.0
2017-Apr-15 23:30N 35°39' E 139°46'3 5.2
2017-Apr-15 23:00N 35°36' E 139°47'1 1.9
2017-Apr-15 22:31N 35°36' E 139°47'1 1.8
2017-Apr-15 22:00N 35°35' E 139°48'1 2.7
2017-Apr-15 21:30N 35°36' E 139°46'0 0.7
2017-Apr-15 21:00N 35°36' E 139°46'1 2.9
2017-Apr-15 20:30N 35°37' E 139°46'1 2.8
2017-Apr-15 20:00N 35°39' E 139°46'0 0.0
2017-Apr-15 17:34N 35°39' E 139°46'0 0.0
2017-Apr-15 17:26N 35°39' E 139°46'0 0.0
2017-Apr-15 16:52N 35°39' E 139°46'0 0.0
2017-Apr-15 16:20N 35°39' E 139°46'0 0.0
2017-Apr-15 15:35N 35°39' E 139°46'0 0.0
2017-Apr-15 14:26N 35°39' E 139°46'0 0.0
2017-Apr-15 13:14N 35°39' E 139°46'0 0.0
2017-Apr-15 12:08N 35°39' E 139°46'0 0.0
2017-Apr-15 12:00N 35°39' E 139°46'0 0.0
2017-Apr-15 11:04N 35°39' E 139°46'0 0.0
2017-Apr-15 11:00N 35°39' E 139°46'0 0.0
2017-Apr-15 09:46N 35°39' E 139°46'0 0.7
2017-Apr-15 09:30N 35°39' E 139°46'3 5.3
2017-Apr-15 09:00N 35°36' E 139°47'2 4.3
2017-Apr-15 08:30N 35°38' E 139°46'1 1.5
2017-Apr-15 08:00N 35°39' E 139°46'0 0.0
2017-Apr-15 07:16N 35°39' E 139°46'0 0.0
2017-Apr-15 06:52N 35°39' E 139°46'0 0.0
2017-Apr-15 06:30N 35°39' E 139°46'0 0.0
2017-Apr-15 05:58N 35°39' E 139°46'0 0.0
2017-Apr-15 05:28N 35°39' E 139°46'0 0.0
2017-Apr-15 04:43N 35°39' E 139°46'0 0.0
2017-Apr-15 04:29N 35°39' E 139°46'0 0.0
2017-Apr-15 03:53N 35°39' E 139°46'0 0.0
2017-Apr-15 03:30N 35°39' E 139°46'0 0.0
2017-Apr-15 02:57N 35°39' E 139°46'  
Track history (hours):
 
Tides and Currents Weather Stations Pressure Air Temp Water Temp Dewpoint Dewpoint Depression Visibility Wind Speed Wind Dir Waves Ship Positions

Fuji Maru

Last reported at 2017-Apr-25 02:30 UTC. Time now 2017-Apr-25 02:39 UTC.
Position N 35°39' E 139°46'.

Length 38 m; draft 4.4 m.

Type: Tug. MMSI: 431001102.

Date/timePositionNaut miles runAvg speedWind from/ knotsBaromVisibWave heightAir tempDewpointWater temp
2017-Apr-25 02:30N 35°39' E 139°46'0 0.0
2017-Apr-25 01:59N 35°39' E 139°46'0 0.0
2017-Apr-25 01:29N 35°39' E 139°46'0 0.0
2017-Apr-25 00:55N 35°39' E 139°46'0 0.0
2017-Apr-25 00:21N 35°39' E 139°46'0 0.0
2017-Apr-24 23:55N 35°39' E 139°46'0 0.0
2017-Apr-24 23:31N 35°39' E 139°46'0 0.0
2017-Apr-24 23:00N 35°39' E 139°46'2 4.1
2017-Apr-24 22:30N 35°37' E 139°46'1 2.2
2017-Apr-24 22:00N 35°36' E 139°47'2 4.6
2017-Apr-24 21:30N 35°34' E 139°49'1 2.1
2017-Apr-24 21:01N 35°35' E 139°48'2 3.5
2017-Apr-24 20:31N 35°37' E 139°47'1 2.2
2017-Apr-24 20:00N 35°35' E 139°47'0 0.9
2017-Apr-24 19:30N 35°36' E 139°46'0 0.7
2017-Apr-24 19:00N 35°36' E 139°46'3 5.5
2017-Apr-24 18:30N 35°39' E 139°46'0 0.0
2017-Apr-24 18:00N 35°39' E 139°46'0 0.0
2017-Apr-24 17:30N 35°39' E 139°46'0 0.0
2017-Apr-24 17:01N 35°39' E 139°46'0 0.1
2017-Apr-24 16:30N 35°39' E 139°46'0 0.1
2017-Apr-24 16:00N 35°39' E 139°46'0 0.0
2017-Apr-24 15:30N 35°39' E 139°46'0 0.0
2017-Apr-24 15:01N 35°39' E 139°46'0 0.1
2017-Apr-24 14:31N 35°39' E 139°46'0 0.0
2017-Apr-24 13:30N 35°39' E 139°46'0 0.1
2017-Apr-24 13:00N 35°39' E 139°46'0 0.0
2017-Apr-24 12:30N 35°39' E 139°46'0 0.0
2017-Apr-24 12:00N 35°39' E 139°46'0 0.0
2017-Apr-24 11:30N 35°39' E 139°46'0 0.0
2017-Apr-24 11:01N 35°39' E 139°46'0 0.0
2017-Apr-24 10:30N 35°39' E 139°46'0 0.0
2017-Apr-24 10:01N 35°39' E 139°46'0 0.0
2017-Apr-24 09:30N 35°39' E 139°46'0 0.0
2017-Apr-24 09:00N 35°39' E 139°46'0 0.0
2017-Apr-24 08:30N 35°39' E 139°46'0 0.0
2017-Apr-24 08:01N 35°39' E 139°46'0 0.0
2017-Apr-24 07:30N 35°39' E 139°46'0 0.1
2017-Apr-24 07:00N 35°39' E 139°46'0 0.1
2017-Apr-24 06:30N 35°39' E 139°46'0 0.0
2017-Apr-24 06:00N 35°39' E 139°46'0 0.0
2017-Apr-24 05:30N 35°39' E 139°46'0 0.0
2017-Apr-24 05:00N 35°39' E 139°46'0 0.0
2017-Apr-24 04:27N 35°39' E 139°46'0 0.0
2017-Apr-24 04:00N 35°39' E 139°46'0 0.0
2017-Apr-24 03:30N 35°39' E 139°46'0 0.0
2017-Apr-24 03:00N 35°39' E 139°46'0 0.0
2017-Apr-24 02:31N 35°39' E 139°46'0 0.0
2017-Apr-24 02:00N 35°39' E 139°46'0 0.0
2017-Apr-24 01:30N 35°39' E 139°46'0 0.0
2017-Apr-24 01:00N 35°39' E 139°46'0 0.0
2017-Apr-24 00:30N 35°39' E 139°46'0 0.0
2017-Apr-24 00:00N 35°39' E 139°46'3 5.1
2017-Apr-23 23:30N 35°36' E 139°46'1 1.6
2017-Apr-23 23:00N 35°36' E 139°47'4 8.0
2017-Apr-23 22:28N 35°33' E 139°51'1 3.2
2017-Apr-23 22:00N 35°34' E 139°50'3 5.7
2017-Apr-23 21:30N 35°36' E 139°47'0 0.0
2017-Apr-23 21:00N 35°36' E 139°47'0 0.8
2017-Apr-23 20:30N 35°36' E 139°47'0 0.4
2017-Apr-23 20:00N 35°36' E 139°46'1 2.4
2017-Apr-23 19:30N 35°37' E 139°46'2 3.5
2017-Apr-23 19:00N 35°39' E 139°46'0 0.0
2017-Apr-23 18:30N 35°39' E 139°46'0 0.0
2017-Apr-23 18:00N 35°39' E 139°46'0 0.0
2017-Apr-23 17:30N 35°39' E 139°46'0 0.0
2017-Apr-23 17:00N 35°39' E 139°46'0 0.0
2017-Apr-23 16:30N 35°39' E 139°46'0 0.0
2017-Apr-23 16:00N 35°39' E 139°46'0 0.0
2017-Apr-23 15:31N 35°39' E 139°46'0 0.0
2017-Apr-23 15:01N 35°39' E 139°46'0 0.0
2017-Apr-23 14:00N 35°39' E 139°46'0 0.0
2017-Apr-23 13:31N 35°39' E 139°46'0 0.0
2017-Apr-23 13:00N 35°39' E 139°46'0 0.0
2017-Apr-23 12:30N 35°39' E 139°46'0 0.0
2017-Apr-23 12:01N 35°39' E 139°46'0 0.0
2017-Apr-23 11:30N 35°39' E 139°46'0 0.0
2017-Apr-23 11:00N 35°39' E 139°46'0 0.0
2017-Apr-23 10:30N 35°39' E 139°46'0 0.0
2017-Apr-23 10:00N 35°39' E 139°46'0 0.0
2017-Apr-23 09:31N 35°39' E 139°46'0 0.0
2017-Apr-23 09:01N 35°39' E 139°46'0 0.0
2017-Apr-23 08:31N 35°39' E 139°46'0 0.0
2017-Apr-23 08:00N 35°39' E 139°46'0 0.0
2017-Apr-23 07:31N 35°39' E 139°46'0 0.0
2017-Apr-23 07:00N 35°39' E 139°46'0 0.0
2017-Apr-23 06:30N 35°39' E 139°46'0 0.0
2017-Apr-23 06:00N 35°39' E 139°46'0 0.0
2017-Apr-23 05:30N 35°39' E 139°46'0 0.0
2017-Apr-23 05:00N 35°39' E 139°46'0 0.0
2017-Apr-23 04:30N 35°39' E 139°46'0 0.0
2017-Apr-23 03:59N 35°39' E 139°46'0 0.0
2017-Apr-23 03:29N 35°39' E 139°46'0 0.0
2017-Apr-23 03:00N 35°39' E 139°46'0 0.0
2017-Apr-23 02:30N 35°39' E 139°46'0 0.0
2017-Apr-23 02:00N 35°39' E 139°46'0 0.0
2017-Apr-23 01:30N 35°39' E 139°46'0 0.0
2017-Apr-23 01:00N 35°39' E 139°46'0 0.0
2017-Apr-23 00:30N 35°39' E 139°46'0 0.0
2017-Apr-23 00:00N 35°39' E 139°46'0 0.0
2017-Apr-22 23:30N 35°39' E 139°46'0 0.0
2017-Apr-22 23:01N 35°39' E 139°46'0 0.0
2017-Apr-22 22:30N 35°39' E 139°46'0 0.0
2017-Apr-22 22:00N 35°39' E 139°46'0 0.0
2017-Apr-22 21:30N 35°39' E 139°46'0 0.0
2017-Apr-22 21:00N 35°39' E 139°46'0 0.0
2017-Apr-22 20:27N 35°39' E 139°46'0 0.0
2017-Apr-22 20:00N 35°39' E 139°46'0 0.0
2017-Apr-22 19:29N 35°39' E 139°46'0 0.0
2017-Apr-22 19:00N 35°39' E 139°46'0 0.0
2017-Apr-22 18:30N 35°39' E 139°46'0 0.0
2017-Apr-22 18:00N 35°39' E 139°46'0 0.0
2017-Apr-22 17:30N 35°39' E 139°46'0 0.0
2017-Apr-22 17:01N 35°39' E 139°46'0 0.0
2017-Apr-22 16:30N 35°39' E 139°46'0 0.0
2017-Apr-22 16:00N 35°39' E 139°46'0 0.0
2017-Apr-22 15:30N 35°39' E 139°46'0 0.0
2017-Apr-22 15:00N 35°39' E 139°46'0 0.0
2017-Apr-22 14:30N 35°39' E 139°46'0 0.0
2017-Apr-22 13:30N 35°39' E 139°46'0 0.0
2017-Apr-22 13:00N 35°39' E 139°46'0 0.0
2017-Apr-22 12:30N 35°39' E 139°46'0 0.0
2017-Apr-22 12:00N 35°39' E 139°46'0 0.0
2017-Apr-22 11:30N 35°39' E 139°46'0 0.0
2017-Apr-22 11:00N 35°39' E 139°46'0 0.0
2017-Apr-22 10:30N 35°39' E 139°46'0 0.0
2017-Apr-22 10:00N 35°39' E 139°46'0 0.0
2017-Apr-22 09:30N 35°39' E 139°46'0 0.0
2017-Apr-22 09:00N 35°39' E 139°46'1 2.4
2017-Apr-22 08:30N 35°38' E 139°46'2 3.7
2017-Apr-22 08:00N 35°36' E 139°47'1 1.8
2017-Apr-22 07:30N 35°37' E 139°46'2 4.3
2017-Apr-22 07:00N 35°39' E 139°46'0 0.2
2017-Apr-22 06:30N 35°39' E 139°46'0 0.0
2017-Apr-22 06:01N 35°39' E 139°46'0 0.0
2017-Apr-22 05:30N 35°39' E 139°46'0 0.0
2017-Apr-22 05:00N 35°39' E 139°46'0 0.0
2017-Apr-22 04:30N 35°39' E 139°46'0 0.0
2017-Apr-22 03:58N 35°39' E 139°46'0 0.0
2017-Apr-22 03:30N 35°39' E 139°46'0 0.0
2017-Apr-22 03:00N 35°39' E 139°46'0 0.0
2017-Apr-22 02:31N 35°39' E 139°46'0 0.0
2017-Apr-22 02:01N 35°39' E 139°46'0 0.0
2017-Apr-22 01:30N 35°39' E 139°46'0 0.0
2017-Apr-22 01:01N 35°39' E 139°46'0 0.0
2017-Apr-22 00:31N 35°39' E 139°46'0 0.0
2017-Apr-22 00:00N 35°39' E 139°46'0 0.0
2017-Apr-21 23:30N 35°39' E 139°46'3 5.0
2017-Apr-21 23:00N 35°36' E 139°46'0 0.2
2017-Apr-21 22:30N 35°36' E 139°46'2 3.1
2017-Apr-21 22:01N 35°35' E 139°47'3 6.4
2017-Apr-21 21:30N 35°33' E 139°51'5 9.5
2017-Apr-21 21:00N 35°36' E 139°46'2 3.5
2017-Apr-21 20:31N 35°38' E 139°45'0 0.3
2017-Apr-21 20:00N 35°38' E 139°46'3 5.4
2017-Apr-21 19:30N 35°36' E 139°47'1 2.4
2017-Apr-21 19:01N 35°37' E 139°46'1 2.5
2017-Apr-21 18:30N 35°38' E 139°46'1 2.0
2017-Apr-21 18:00N 35°39' E 139°46'0 0.0
2017-Apr-21 17:30N 35°39' E 139°46'0 0.0
2017-Apr-21 17:00N 35°39' E 139°46'0 0.0
2017-Apr-21 16:30N 35°39' E 139°46'0 0.0
2017-Apr-21 16:01N 35°39' E 139°46'0 0.0
2017-Apr-21 15:30N 35°39' E 139°46'0 0.0
2017-Apr-21 15:01N 35°39' E 139°46'0 0.0
2017-Apr-21 14:31N 35°39' E 139°46'0 0.0
2017-Apr-21 13:30N 35°39' E 139°46'0 0.0
2017-Apr-21 13:00N 35°39' E 139°46'0 0.0
2017-Apr-21 12:31N 35°39' E 139°46'0 0.0
2017-Apr-21 12:01N 35°39' E 139°46'0 0.1
2017-Apr-21 11:30N 35°39' E 139°46'0 0.1
2017-Apr-21 11:00N 35°39' E 139°46'0 0.0
2017-Apr-21 10:30N 35°39' E 139°46'0 0.0
2017-Apr-21 10:00N 35°39' E 139°46'0 0.0
2017-Apr-21 09:26N 35°39' E 139°46'0 0.0
2017-Apr-21 09:00N 35°39' E 139°46'0 0.0
2017-Apr-21 08:30N 35°39' E 139°46'0 0.0
2017-Apr-21 08:01N 35°39' E 139°46'0 0.0
2017-Apr-21 07:30N 35°39' E 139°46'0 0.0
2017-Apr-21 07:01N 35°39' E 139°46'0 0.0
2017-Apr-21 06:30N 35°39' E 139°46'0 0.0
2017-Apr-21 06:00N 35°39' E 139°46'0 0.0
2017-Apr-21 05:30N 35°39' E 139°46'0 0.0
2017-Apr-21 05:01N 35°39' E 139°46'0 0.0
2017-Apr-21 04:31N 35°39' E 139°46'0 0.0
2017-Apr-21 04:00N 35°39' E 139°46'0 0.0
2017-Apr-21 03:31N 35°39' E 139°46'0 0.0
2017-Apr-21 03:00N 35°39' E 139°46'0 0.0
2017-Apr-21 02:30N 35°39' E 139°46'0 0.0
2017-Apr-21 02:00N 35°39' E 139°46'0 0.0
2017-Apr-21 01:30N 35°39' E 139°46'0 0.0
2017-Apr-21 01:00N 35°39' E 139°46'0 0.0
2017-Apr-21 00:30N 35°39' E 139°46'0 0.0
2017-Apr-21 00:00N 35°39' E 139°46'0 0.0
2017-Apr-20 23:30N 35°39' E 139°46'0 0.0
2017-Apr-20 23:00N 35°39' E 139°46'0 0.0
2017-Apr-20 22:30N 35°39' E 139°46'0 0.0
2017-Apr-20 22:00N 35°39' E 139°46'0 0.0
2017-Apr-20 21:30N 35°39' E 139°46'0 0.0
2017-Apr-20 21:00N 35°39' E 139°46'0 0.0
2017-Apr-20 20:30N 35°39' E 139°46'0 0.0
2017-Apr-20 20:00N 35°39' E 139°46'0 0.0
2017-Apr-20 19:31N 35°39' E 139°46'0 0.0
2017-Apr-20 19:01N 35°39' E 139°46'0 0.0
2017-Apr-20 18:30N 35°39' E 139°46'0 0.0
2017-Apr-20 18:00N 35°39' E 139°46'0 0.0
2017-Apr-20 17:30N 35°39' E 139°46'0 0.0
2017-Apr-20 17:00N 35°39' E 139°46'0 0.0
2017-Apr-20 16:30N 35°39' E 139°46'0 0.0
2017-Apr-20 16:00N 35°39' E 139°46'0 0.0
2017-Apr-20 15:30N 35°39' E 139°46'0 0.2
2017-Apr-20 15:00N 35°39' E 139°46'0 0.2
2017-Apr-20 14:30N 35°39' E 139°46'0 0.0
2017-Apr-20 13:30N 35°39' E 139°46'0 0.0
2017-Apr-20 13:00N 35°39' E 139°46'0 0.0
2017-Apr-20 12:31N 35°39' E 139°46'0 0.0
2017-Apr-20 12:00N 35°39' E 139°46'0 0.0
2017-Apr-20 11:30N 35°39' E 139°46'0 0.0
2017-Apr-20 11:00N 35°39' E 139°46'0 0.2
2017-Apr-20 10:30N 35°39' E 139°46'3 5.7
2017-Apr-20 10:00N 35°36' E 139°47'1 2.1
2017-Apr-20 09:30N 35°35' E 139°48'0 0.8
2017-Apr-20 09:00N 35°35' E 139°48'1 2.1
2017-Apr-20 08:30N 35°35' E 139°47'0 0.0
2017-Apr-20 08:00N 35°35' E 139°47'0 0.0
2017-Apr-20 07:30N 35°35' E 139°47'0 0.0
2017-Apr-20 07:01N 35°35' E 139°47'0 0.0
2017-Apr-20 06:31N 35°35' E 139°47'1 2.0
2017-Apr-20 06:00N 35°36' E 139°47'1 1.2
2017-Apr-20 05:30N 35°37' E 139°46'2 4.0
2017-Apr-20 05:00N 35°39' E 139°46'0 0.0
2017-Apr-20 04:30N 35°39' E 139°46'0 0.0
2017-Apr-20 04:00N 35°39' E 139°46'0 0.0
2017-Apr-20 03:30N 35°39' E 139°46'0 0.0
2017-Apr-20 03:00N 35°39' E 139°46'0 0.0
2017-Apr-20 02:30N 35°39' E 139°46'0 0.0
2017-Apr-20 02:00N 35°39' E 139°46'0 0.0
2017-Apr-20 01:30N 35°39' E 139°46'0 0.0
2017-Apr-20 01:00N 35°39' E 139°46'0 0.0
2017-Apr-20 00:30N 35°39' E 139°46'0 0.0
2017-Apr-20 00:00N 35°39' E 139°46'0 0.0
2017-Apr-19 23:30N 35°39' E 139°46'0 0.0
2017-Apr-19 23:01N 35°39' E 139°46'0 0.0
2017-Apr-19 22:30N 35°39' E 139°46'0 0.0
2017-Apr-19 22:00N 35°39' E 139°46'0 0.0
2017-Apr-19 21:30N 35°39' E 139°46'0 0.0
2017-Apr-19 21:01N 35°39' E 139°46'0 0.1
2017-Apr-19 20:30N 35°39' E 139°46'0 0.1
2017-Apr-19 20:00N 35°39' E 139°46'0 0.0
2017-Apr-19 19:30N 35°39' E 139°46'0 0.0
2017-Apr-19 19:00N 35°39' E 139°46'0 0.0
2017-Apr-19 18:30N 35°39' E 139°46'0 0.0
2017-Apr-19 18:00N 35°39' E 139°46'0 0.0
2017-Apr-19 17:30N 35°39' E 139°46'0 0.0
2017-Apr-19 17:00N 35°39' E 139°46'0 0.1
2017-Apr-19 16:30N 35°39' E 139°46'0 0.1
2017-Apr-19 16:01N 35°39' E 139°46'0 0.0
2017-Apr-19 15:30N 35°39' E 139°46'0 0.2
2017-Apr-19 15:01N 35°39' E 139°46'0 0.2
2017-Apr-19 14:30N 35°39' E 139°46'0 0.0
2017-Apr-19 13:30N 35°39' E 139°46'0 0.0
2017-Apr-19 13:00N 35°39' E 139°46'0 0.0
2017-Apr-19 12:31N 35°39' E 139°46'0 0.0
2017-Apr-19 12:01N 35°39' E 139°46'0 0.0
2017-Apr-19 10:53N 35°39' E 139°46'0 0.0
2017-Apr-19 10:31N 35°39' E 139°46'0 0.0
2017-Apr-19 10:01N 35°39' E 139°46'0 0.0
2017-Apr-19 09:30N 35°39' E 139°46'0 0.0
2017-Apr-19 08:59N 35°39' E 139°46'0 0.0
2017-Apr-19 08:31N 35°39' E 139°46'0 0.0
2017-Apr-19 08:00N 35°39' E 139°46'0 0.0
2017-Apr-19 07:30N 35°39' E 139°46'0 0.0
2017-Apr-19 07:00N 35°39' E 139°46'0 0.0
2017-Apr-19 06:30N 35°39' E 139°46'3 6.7
2017-Apr-19 06:00N 35°37' E 139°49'1 1.8
2017-Apr-19 05:30N 35°38' E 139°50'3 5.8
2017-Apr-19 05:01N 35°37' E 139°46'2 4.6
2017-Apr-19 04:30N 35°39' E 139°46'0 0.0
2017-Apr-19 04:00N 35°39' E 139°46'0 0.0
2017-Apr-19 03:30N 35°39' E 139°46'1 1.4
2017-Apr-19 03:00N 35°38' E 139°46'2 3.0
2017-Apr-19 02:30N 35°37' E 139°46'0 0.4
2017-Apr-19 02:00N 35°37' E 139°46'2 2.6
2017-Apr-19 01:11N 35°39' E 139°46'0 0.0
2017-Apr-19 00:57N 35°39' E 139°46'0 0.0
2017-Apr-19 00:30N 35°39' E 139°46'0 0.0
2017-Apr-19 00:00N 35°39' E 139°46'0 0.0
2017-Apr-18 18:13N 35°39' E 139°46'0 0.0
2017-Apr-18 15:57N 35°39' E 139°46'0 0.0
2017-Apr-18 13:20N 35°39' E 139°46'0 0.0
2017-Apr-18 12:59N 35°39' E 139°46'0 0.0
2017-Apr-18 12:30N 35°39' E 139°46'0 0.0
2017-Apr-18 11:59N 35°39' E 139°46'0 0.0
2017-Apr-18 11:30N 35°39' E 139°46'1 1.3
2017-Apr-18 11:01N 35°38' E 139°45'2 4.1
2017-Apr-18 10:30N 35°36' E 139°47'1 2.0
2017-Apr-18 10:00N 35°35' E 139°47'1 3.0
2017-Apr-18 09:30N 35°34' E 139°48'2 3.6
2017-Apr-18 08:58N 35°36' E 139°47'1 1.6
2017-Apr-18 08:30N 35°36' E 139°47'0 0.3
2017-Apr-18 08:00N 35°36' E 139°47'1 1.6
2017-Apr-18 07:30N 35°36' E 139°47'0 0.0
2017-Apr-18 07:00N 35°36' E 139°47'2 4.8
2017-Apr-18 06:30N 35°38' E 139°46'1 1.8
2017-Apr-18 06:00N 35°39' E 139°46'0 0.0
2017-Apr-18 05:29N 35°39' E 139°46'0 0.0
2017-Apr-18 05:00N 35°39' E 139°46'0 0.0
2017-Apr-18 04:30N 35°39' E 139°46'0 0.0
2017-Apr-18 04:00N 35°39' E 139°46'0 0.0
2017-Apr-18 03:30N 35°39' E 139°46'0 0.0
2017-Apr-18 02:58N 35°39' E 139°46'0 0.0
2017-Apr-18 02:24N 35°39' E 139°46'0 0.0
2017-Apr-18 02:00N 35°39' E 139°46'0 0.0
2017-Apr-18 01:21N 35°39' E 139°46'0 0.0
2017-Apr-18 00:47N 35°39' E 139°46'3 9.5
2017-Apr-18 00:30N 35°36' E 139°47'1 1.1
2017-Apr-18 00:00N 35°36' E 139°47'1 1.8
2017-Apr-17 23:30N 35°35' E 139°48'2 3.8
2017-Apr-17 23:00N 35°36' E 139°46'1 1.5
2017-Apr-17 22:30N 35°36' E 139°47'3 5.6
2017-Apr-17 22:00N 35°34' E 139°49'2 4.8
2017-Apr-17 21:31N 35°35' E 139°47'0 0.4
2017-Apr-17 21:00N 35°35' E 139°47'1 1.2
2017-Apr-17 20:30N 35°36' E 139°46'1 2.1
2017-Apr-17 20:00N 35°37' E 139°46'2 3.9
2017-Apr-17 19:30N 35°39' E 139°46'0 0.0
2017-Apr-17 18:57N 35°39' E 139°46'0 0.0
2017-Apr-17 18:30N 35°39' E 139°46'0 0.0
2017-Apr-17 18:00N 35°39' E 139°46'0 0.0
2017-Apr-17 17:29N 35°39' E 139°46'0 0.0
2017-Apr-17 16:59N 35°39' E 139°46'0 0.0
2017-Apr-17 14:37N 35°39' E 139°46'0 0.0
2017-Apr-17 14:29N 35°39' E 139°46'0 0.0
2017-Apr-17 12:55N 35°39' E 139°46'0 0.0
2017-Apr-17 12:24N 35°39' E 139°46'0 0.0
2017-Apr-17 11:57N 35°39' E 139°46'0 0.0
2017-Apr-17 11:30N 35°39' E 139°46'0 0.0
2017-Apr-17 10:57N 35°39' E 139°46'0 0.0
2017-Apr-17 10:16N 35°39' E 139°46'0 0.0
2017-Apr-17 09:59N 35°39' E 139°46'0 0.0
2017-Apr-17 09:29N 35°39' E 139°46'0 0.0
2017-Apr-17 09:00N 35°39' E 139°46'0 0.0
2017-Apr-17 08:30N 35°39' E 139°46'0 0.0
2017-Apr-17 08:00N 35°39' E 139°46'0 0.0
2017-Apr-17 07:29N 35°39' E 139°46'0 0.0
2017-Apr-17 06:59N 35°39' E 139°46'0 0.0
2017-Apr-17 06:30N 35°39' E 139°46'0 0.0
2017-Apr-17 06:00N 35°39' E 139°46'0 0.0
2017-Apr-17 05:30N 35°39' E 139°46'0 0.0
2017-Apr-17 05:00N 35°39' E 139°46'0 0.0
2017-Apr-17 04:28N 35°39' E 139°46'0 0.0
2017-Apr-17 04:00N 35°39' E 139°46'0 0.0
2017-Apr-17 01:02N 35°39' E 139°46'0 0.0
2017-Apr-17 00:59N 35°39' E 139°46'0 0.0
2017-Apr-17 00:27N 35°39' E 139°46'0 0.0
2017-Apr-16 23:35N 35°39' E 139°46'0 0.1
2017-Apr-16 23:29N 35°39' E 139°46'0 0.0
2017-Apr-16 23:00N 35°39' E 139°46'0 0.0
2017-Apr-16 22:30N 35°39' E 139°46'0 0.0
2017-Apr-16 22:00N 35°39' E 139°46'0 0.0
2017-Apr-16 21:30N 35°39' E 139°46'0 0.0
2017-Apr-16 21:00N 35°39' E 139°46'0 0.0
2017-Apr-16 20:30N 35°39' E 139°46'0 0.0
2017-Apr-16 19:33N 35°39' E 139°46'0 0.0
2017-Apr-16 19:30N 35°39' E 139°46'0 0.0
2017-Apr-16 18:52N 35°39' E 139°46'0 0.0
2017-Apr-16 18:24N 35°39' E 139°46'0 0.0
2017-Apr-16 18:00N 35°39' E 139°46'0 0.0
2017-Apr-16 17:30N 35°39' E 139°46'0 0.0
2017-Apr-16 16:54N 35°39' E 139°46'0 0.0
2017-Apr-16 16:24N 35°39' E 139°46'0 0.0
2017-Apr-16 16:00N 35°39' E 139°46'0 0.0
2017-Apr-16 15:30N 35°39' E 139°46'0 0.0
2017-Apr-16 15:00N 35°39' E 139°46'0 0.0
2017-Apr-16 14:00N 35°39' E 139°46'0 0.0
2017-Apr-16 13:30N 35°39' E 139°46'0 0.0
2017-Apr-16 12:22N 35°39' E 139°46'0 0.0
2017-Apr-16 11:49N 35°39' E 139°46'0 0.0
2017-Apr-16 11:22N 35°39' E 139°46'0 0.0
2017-Apr-16 10:59N 35°39' E 139°46'0 0.0
2017-Apr-16 09:09N 35°39' E 139°46'0 0.0
2017-Apr-16 06:53N 35°39' E 139°46'0 0.0
2017-Apr-16 06:22N 35°39' E 139°46'0 0.0
2017-Apr-16 05:46N 35°39' E 139°46'0 0.0
2017-Apr-16 05:25N 35°39' E 139°46'0 0.0
2017-Apr-16 04:52N 35°39' E 139°46'0 0.0
2017-Apr-16 04:30N 35°39' E 139°46'0 0.0
2017-Apr-16 03:46N 35°39' E 139°46'0 0.0
2017-Apr-16 03:22N 35°39' E 139°46'0 0.0
2017-Apr-16 02:50N 35°39' E 139°46'0 0.0
2017-Apr-16 02:12N 35°39' E 139°46'0 0.0
2017-Apr-16 01:49N 35°39' E 139°46'0 0.0
2017-Apr-16 01:30N 35°39' E 139°46'0 0.0
2017-Apr-16 01:00N 35°39' E 139°46'0 0.0
2017-Apr-16 00:30N 35°39' E 139°46'0 0.0
2017-Apr-16 00:00N 35°39' E 139°46'0 0.0
2017-Apr-15 23:30N 35°39' E 139°46'3 5.2
2017-Apr-15 23:00N 35°36' E 139°47'1 1.9
2017-Apr-15 22:31N 35°36' E 139°47'1 1.8
2017-Apr-15 22:00N 35°35' E 139°48'1 2.7
2017-Apr-15 21:30N 35°36' E 139°46'0 0.7
2017-Apr-15 21:00N 35°36' E 139°46'1 2.9
2017-Apr-15 20:30N 35°37' E 139°46'1 2.8
2017-Apr-15 20:00N 35°39' E 139°46'0 0.0
2017-Apr-15 17:34N 35°39' E 139°46'0 0.0
2017-Apr-15 17:26N 35°39' E 139°46'0 0.0
2017-Apr-15 16:52N 35°39' E 139°46'0 0.0
2017-Apr-15 16:20N 35°39' E 139°46'0 0.0
2017-Apr-15 15:35N 35°39' E 139°46'0 0.0
2017-Apr-15 14:26N 35°39' E 139°46'0 0.0
2017-Apr-15 13:14N 35°39' E 139°46'0 0.0
2017-Apr-15 12:08N 35°39' E 139°46'0 0.0
2017-Apr-15 12:00N 35°39' E 139°46'0 0.0
2017-Apr-15 11:04N 35°39' E 139°46'0 0.0
2017-Apr-15 11:00N 35°39' E 139°46'0 0.0
2017-Apr-15 09:46N 35°39' E 139°46'0 0.7
2017-Apr-15 09:30N 35°39' E 139°46'3 5.3
2017-Apr-15 09:00N 35°36' E 139°47'2 4.3
2017-Apr-15 08:30N 35°38' E 139°46'1 1.5
2017-Apr-15 08:00N 35°39' E 139°46'0 0.0
2017-Apr-15 07:16N 35°39' E 139°46'0 0.0
2017-Apr-15 06:52N 35°39' E 139°46'0 0.0
2017-Apr-15 06:30N 35°39' E 139°46'0 0.0
2017-Apr-15 05:58N 35°39' E 139°46'0 0.0
2017-Apr-15 05:28N 35°39' E 139°46'0 0.0
2017-Apr-15 04:43N 35°39' E 139°46'0 0.0
2017-Apr-15 04:29N 35°39' E 139°46'0 0.0
2017-Apr-15 03:53N 35°39' E 139°46'0 0.0
2017-Apr-15 03:30N 35°39' E 139°46'0 0.0
2017-Apr-15 02:57N 35°39' E 139°46'  

Dump ship's entire track history